createdAt,value
2022-09-06T00:02:05.680Z,20.3
2022-09-06T00:12:06.423Z,20.4
2022-09-06T00:22:06.690Z,20.5
2022-09-06T00:32:07.639Z,20.5
2022-09-06T00:42:08.486Z,20.4
2022-09-06T00:52:09.103Z,20.3
2022-09-06T01:02:09.882Z,20.3
2022-09-06T01:12:10.361Z,20.3
2022-09-06T01:22:11.092Z,20.5
2022-09-06T01:32:11.991Z,20.8
2022-09-06T01:42:12.319Z,21.1
2022-09-06T01:52:12.763Z,21.2
2022-09-06T02:02:13.225Z,21.3
2022-09-06T02:12:13.417Z,21.3
2022-09-06T02:22:13.647Z,21.2
2022-09-06T02:32:14.296Z,21
2022-09-06T02:42:14.882Z,20.8
2022-09-06T02:52:15.531Z,20.6
2022-09-06T03:02:15.707Z,20.3
2022-09-06T03:12:15.924Z,20.2
2022-09-06T03:22:16.280Z,20
2022-09-06T03:32:16.480Z,19.9
2022-09-06T03:42:17.467Z,19.9
2022-09-06T03:52:17.634Z,19.8
2022-09-06T04:02:18.260Z,19.7
2022-09-06T04:12:18.828Z,19.6
2022-09-06T04:22:19.758Z,19.5
2022-09-06T04:32:20.087Z,19.5
2022-09-06T04:42:20.140Z,19.5
2022-09-06T04:52:20.467Z,19.6
2022-09-06T05:02:20.643Z,19.7
2022-09-06T05:22:21.543Z,19.8
2022-09-06T05:32:21.755Z,19.8
2022-09-06T05:42:21.921Z,20
2022-09-06T05:52:22.612Z,20.1
2022-09-06T06:02:23.269Z,20.3
2022-09-06T06:12:23.748Z,20.5
2022-09-06T06:22:24.751Z,20.5
2022-09-06T06:32:25.397Z,20.7
2022-09-06T06:42:26.025Z,21.1
2022-09-06T06:52:26.922Z,21.6
2022-09-06T07:02:27.066Z,22.1
2022-09-06T07:12:27.221Z,22.4
2022-09-06T07:22:27.311Z,22.7
2022-09-06T07:32:27.882Z,23
2022-09-06T07:42:30.777Z,23.4
2022-09-06T08:12:29.734Z,24.5
2022-09-06T08:22:30.784Z,24.7
2022-09-06T08:42:32.130Z,25.5
2022-09-06T08:52:32.552Z,25.5
2022-09-06T09:02:32.886Z,25.8
2022-09-06T09:15:11.507Z,25.9
2022-09-06T09:42:43.293Z,26.5
2022-09-06T10:02:44.662Z,27.2
2022-09-06T10:12:45.490Z,26.9
2022-09-06T10:22:46.015Z,27.4
2022-09-06T11:12:48.668Z,27.8
2022-09-06T11:42:50.073Z,28.3
2022-09-06T12:02:51.764Z,28.9
2022-09-06T12:22:52.904Z,28.9
2022-09-06T12:32:53.703Z,29.1
2022-09-06T12:42:54.005Z,29.3
2022-09-06T12:52:54.814Z,29.5
2022-09-06T13:02:55.200Z,29.3
2022-09-06T13:12:55.887Z,29.9
2022-09-06T13:22:56.227Z,29.4
2022-09-06T13:32:56.773Z,30.2
2022-09-06T13:42:56.852Z,30.1
2022-09-06T13:52:57.070Z,30.1
2022-09-06T14:02:57.314Z,30.2
2022-09-06T14:12:58.041Z,30.4
2022-09-06T14:22:58.609Z,29.7
2022-09-06T14:42:59.254Z,29.7
2022-09-06T14:52:59.467Z,29.4
2022-09-06T15:03:00.320Z,29.4
2022-09-06T15:13:01.041Z,29.2
2022-09-06T15:23:24.178Z,29.3
2022-09-06T15:43:02.491Z,29
2022-09-06T15:53:02.829Z,29.2
2022-09-06T16:03:02.966Z,28.6
2022-09-06T16:13:03.709Z,28.7
2022-09-06T16:23:03.992Z,28.7
2022-09-06T16:33:04.882Z,28.8
2022-09-06T16:43:05.255Z,28.5
2022-09-06T16:53:05.646Z,28.5
2022-09-06T17:03:05.811Z,28.3
2022-09-06T17:13:06.813Z,28.1
2022-09-06T17:23:06.971Z,27.7
2022-09-06T17:33:08.041Z,27.3
2022-09-06T17:43:08.550Z,26.7
2022-09-06T17:53:09.553Z,26.1
2022-09-06T18:13:10.341Z,25
2022-09-06T18:23:11.304Z,24.8
2022-09-06T18:33:12.013Z,24.5
2022-09-06T18:43:12.738Z,24.1
2022-09-06T18:53:13.002Z,23.8
2022-09-06T19:03:13.688Z,23.7
2022-09-06T19:13:14.494Z,23.4
2022-09-06T19:23:15.351Z,23.2
2022-09-06T19:33:16.102Z,23.1
2022-09-06T19:43:16.230Z,22.9
2022-09-06T19:53:16.965Z,22.9
2022-09-06T20:03:17.717Z,23.2
2022-09-06T20:13:18.582Z,23.3
2022-09-06T20:23:19.298Z,23.1
2022-09-06T20:33:19.664Z,23.2
2022-09-06T20:43:19.947Z,22.8
2022-09-06T20:53:20.081Z,23.3
2022-09-06T21:03:20.195Z,23.6
2022-09-06T21:13:21.030Z,23.4
2022-09-06T21:23:22.013Z,23
2022-09-06T21:33:22.680Z,22.8
2022-09-06T21:43:22.962Z,22.7
2022-09-06T21:53:23.694Z,22.6
2022-09-06T22:13:24.730Z,23.3
2022-09-06T22:23:24.914Z,23.6
2022-09-06T22:33:24.957Z,23.6
2022-09-06T22:43:25.329Z,23.5
2022-09-06T22:53:25.854Z,23.4
2022-09-06T23:03:26.807Z,23.2
2022-09-06T23:13:27.728Z,23.2
2022-09-06T23:23:28.083Z,23.1
2022-09-06T23:33:29.040Z,23
2022-09-06T23:43:30.059Z,22.7
2022-09-06T23:53:30.485Z,22.6
